createdAt,value
2022-07-29T00:01:05.120Z,102014.91
2022-07-29T00:03:32.102Z,102010.59
2022-07-29T00:05:59.331Z,102006.22
2022-07-29T00:08:27.838Z,102004.59
2022-07-29T00:10:54.663Z,102004.59
2022-07-29T00:13:32.213Z,102009.66
2022-07-29T00:16:04.595Z,102000.63
2022-07-29T00:18:31.990Z,101998.28
2022-07-29T00:20:58.781Z,102007.41
2022-07-29T00:23:25.640Z,102003.38
2022-07-29T00:25:52.389Z,101996.16
2022-07-29T00:28:19.361Z,102002.28
2022-07-29T00:30:47.575Z,101998.41
2022-07-29T00:33:14.435Z,101991.69
2022-07-29T00:35:47.427Z,101997.81
2022-07-29T00:38:16.370Z,101992.88
2022-07-29T00:40:44.651Z,101983.66
2022-07-29T00:43:12.665Z,101978.19
2022-07-29T00:45:39.712Z,101986.31
2022-07-29T00:48:09.931Z,101980.22
2022-07-29T00:50:37.903Z,101984.00
2022-07-29T00:53:05.397Z,101977.00
2022-07-29T00:55:32.316Z,101975.41
2022-07-29T00:57:59.909Z,101969.72
2022-07-29T01:00:29.039Z,101971.41
2022-07-29T01:02:55.901Z,101963.28
2022-07-29T01:05:25.719Z,101966.06
2022-07-29T01:08:14.225Z,101960.69
2022-07-29T01:10:42.395Z,101949.47
2022-07-29T01:13:10.315Z,101958.00
2022-07-29T01:15:49.291Z,101960.28
2022-07-29T01:18:22.003Z,101955.75
2022-07-29T01:21:11.264Z,101948.28
2022-07-29T01:23:58.702Z,101952.31
2022-07-29T01:26:46.819Z,101949.31
2022-07-29T01:29:24.675Z,101950.38
2022-07-29T01:31:59.279Z,101942.91
2022-07-29T01:34:39.627Z,101945.38
2022-07-29T01:37:16.457Z,101948.78
2022-07-29T01:39:45.443Z,101948.16
2022-07-29T01:42:20.301Z,101936.06
2022-07-29T01:44:54.989Z,101943.56
2022-07-29T01:47:26.194Z,101946.31
2022-07-29T01:49:56.164Z,101940.97
2022-07-29T01:52:29.852Z,101943.56
2022-07-29T01:54:59.718Z,101938.06
2022-07-29T01:57:30.470Z,101939.03
2022-07-29T02:00:01.426Z,101938.41
2022-07-29T02:02:39.819Z,101932.41
2022-07-29T02:05:08.861Z,101932.41
2022-07-29T02:07:37.852Z,101939.03
2022-07-29T02:10:07.906Z,101933.78
2022-07-29T02:12:36.749Z,101930.47
2022-07-29T02:15:06.957Z,101928.31
2022-07-29T02:17:38.767Z,101920.78
2022-07-29T02:20:09.264Z,101924.09
2022-07-29T02:22:40.198Z,101914.69
2022-07-29T02:25:14.067Z,101919.06
2022-07-29T02:27:42.637Z,101914.69
2022-07-29T02:30:13.560Z,101912.84
2022-07-29T02:32:42.828Z,101913.91
2022-07-29T02:35:11.707Z,101920.16
2022-07-29T02:37:39.432Z,101917.00
2022-07-29T02:40:11.171Z,101908.72
2022-07-29T02:42:39.808Z,101912.81
2022-07-29T02:45:09.320Z,101907.53
2022-07-29T02:47:42.237Z,101905.94
2022-07-29T02:50:15.194Z,101906.56
2022-07-29T02:52:45.100Z,101904.75
2022-07-29T02:55:16.439Z,101890.09
2022-07-29T02:57:54.104Z,101903.44
2022-07-29T03:00:24.703Z,101905.44
2022-07-29T03:02:56.000Z,101904.59
2022-07-29T03:05:24.028Z,101904.91
2022-07-29T03:07:55.969Z,101903.50
2022-07-29T03:10:24.105Z,101896.78
2022-07-29T03:12:51.676Z,101885.72
2022-07-29T03:15:19.954Z,101888.03
2022-07-29T03:17:47.385Z,101889.03
2022-07-29T03:20:16.595Z,101889.66
2022-07-29T03:22:45.234Z,101891.47
2022-07-29T03:25:13.492Z,101883.91
2022-07-29T03:27:40.616Z,101892.09
2022-07-29T03:30:09.189Z,101879.91
2022-07-29T03:32:36.299Z,101873.63
2022-07-29T03:35:04.188Z,101883.78
2022-07-29T03:37:32.589Z,101886.25
2022-07-29T03:39:59.600Z,101892.81
2022-07-29T03:42:34.154Z,101882.44
2022-07-29T03:45:04.481Z,101894.28
2022-07-29T03:47:39.308Z,101884.75
2022-07-29T03:50:20.466Z,101881.81
2022-07-29T03:52:50.031Z,101882.66
2022-07-29T03:55:17.131Z,101886.88
2022-07-29T03:57:45.049Z,101884.56
2022-07-29T04:00:12.713Z,101874.06
2022-07-29T04:02:41.337Z,101880.47
2022-07-29T04:05:13.890Z,101882.75
2022-07-29T04:07:41.058Z,101878.50
2022-07-29T04:10:10.194Z,101874.31
2022-07-29T04:12:37.492Z,101877.75
2022-07-29T04:15:04.999Z,101878.31
2022-07-29T04:17:31.809Z,101890.00
2022-07-29T04:19:58.900Z,101888.81
2022-07-29T04:22:25.838Z,101882.94
2022-07-29T04:24:54.254Z,101876.72
2022-07-29T04:27:22.482Z,101871.75
2022-07-29T04:29:56.757Z,101842.44
2022-07-29T04:32:24.682Z,101852.13
2022-07-29T04:34:51.745Z,101870.97
2022-07-29T04:37:18.570Z,101867.06
2022-07-29T04:39:45.535Z,101871.47
2022-07-29T04:42:12.341Z,101865.38
2022-07-29T04:44:43.162Z,101873.47
2022-07-29T04:47:10.259Z,101874.69
2022-07-29T04:49:39.093Z,101881.97
2022-07-29T04:52:06.497Z,101882.72
2022-07-29T04:54:33.449Z,101877.25
2022-07-29T04:57:00.324Z,101873.69
2022-07-29T04:59:27.721Z,101882.38
2022-07-29T05:01:55.959Z,101879.59
2022-07-29T05:04:23.163Z,101884.19
2022-07-29T05:06:50.204Z,101867.31
2022-07-29T05:09:17.106Z,101881.34
2022-07-29T05:11:44.025Z,101880.25
2022-07-29T05:14:10.886Z,101887.34
2022-07-29T05:16:37.715Z,101883.47
2022-07-29T05:19:08.598Z,101879.91
2022-07-29T05:21:38.019Z,101877.25
2022-07-29T05:24:05.432Z,101875.91
2022-07-29T05:26:32.530Z,101878.44
2022-07-29T05:28:59.450Z,101878.19
2022-07-29T05:31:26.329Z,101876.44
2022-07-29T05:33:53.158Z,101866.84
2022-07-29T05:36:21.290Z,101869.28
2022-07-29T05:38:48.164Z,101869.16
2022-07-29T05:41:15.007Z,101875.66
2022-07-29T05:43:42.113Z,101874.47
2022-07-29T05:46:09.073Z,101874.09
2022-07-29T05:48:36.029Z,101875.91
2022-07-29T05:51:02.976Z,101868.72
2022-07-29T05:53:31.325Z,101861.75
2022-07-29T05:55:58.066Z,101877.53
2022-07-29T05:58:24.924Z,101867.38
2022-07-29T06:00:51.839Z,101886.66
2022-07-29T06:03:18.711Z,101870.16
2022-07-29T06:05:45.537Z,101888.25
2022-07-29T06:08:12.340Z,101883.97
2022-07-29T06:10:40.689Z,101888.38
2022-07-29T06:13:07.513Z,101893.88
2022-07-29T06:15:34.531Z,101884.47
2022-07-29T06:18:02.285Z,101885.69
2022-07-29T06:20:31.415Z,101882.13
2022-07-29T06:22:59.429Z,101884.81
2022-07-29T06:25:26.997Z,101876.91
2022-07-29T06:27:55.475Z,101885.09
2022-07-29T06:30:22.893Z,101860.41
2022-07-29T06:32:50.710Z,101883.53
2022-07-29T06:35:41.177Z,101890.22
2022-07-29T06:38:05.241Z,101901.00
2022-07-29T06:41:04.961Z,101894.53
2022-07-29T06:43:50.083Z,101895.00
2022-07-29T06:46:19.060Z,101890.59
2022-07-29T06:48:46.890Z,101898.03
2022-07-29T06:51:13.640Z,101895.00
2022-07-29T06:54:00.348Z,101894.66
2022-07-29T06:56:28.348Z,101895.28
2022-07-29T06:58:56.565Z,101889.66
2022-07-29T07:01:23.356Z,101878.16
2022-07-29T07:03:50.239Z,101896.72
2022-07-29T07:06:17.391Z,101890.94
2022-07-29T07:08:44.847Z,101898.09
2022-07-29T07:11:11.678Z,101903.13
2022-07-29T07:13:38.792Z,101896.75
2022-07-29T07:16:07.092Z,101907.00
2022-07-29T07:18:34.238Z,101903.81
2022-07-29T07:21:01.304Z,101898.66
2022-07-29T07:23:28.292Z,101910.19
2022-07-29T07:25:55.129Z,101905.06
2022-07-29T07:28:24.692Z,101896.78
2022-07-29T07:30:52.099Z,101898.81
2022-07-29T07:33:20.546Z,101907.41
2022-07-29T07:35:47.534Z,101908.25
2022-07-29T07:38:15.023Z,101914.84
2022-07-29T07:40:42.497Z,101911.19
2022-07-29T07:43:09.243Z,101906.88
2022-07-29T07:45:38.372Z,101908.19
2022-07-29T07:48:05.691Z,101903.56
2022-07-29T07:50:33.854Z,101907.25
2022-07-29T07:53:03.017Z,101847.78
2022-07-29T07:55:53.245Z,101890.97
2022-07-29T07:58:16.854Z,101904.66
2022-07-29T08:00:46.069Z,101898.69
2022-07-29T08:03:16.591Z,101907.28
2022-07-29T08:05:45.909Z,101907.84
2022-07-29T08:08:15.394Z,101908.16
2022-07-29T08:10:54.465Z,101907.66
2022-07-29T08:13:22.616Z,101899.00
2022-07-29T08:15:58.762Z,101914.09
2022-07-29T08:18:26.604Z,101913.94
2022-07-29T08:20:55.206Z,101897.75
2022-07-29T08:23:22.483Z,101904.47
2022-07-29T08:25:50.290Z,101903.19
2022-07-29T08:28:17.331Z,101908.47
2022-07-29T08:30:44.380Z,101912.59
2022-07-29T08:33:11.257Z,101903.63
2022-07-29T08:35:39.968Z,101909.34
2022-07-29T08:38:08.143Z,101905.00
2022-07-29T08:40:34.945Z,101907.78
2022-07-29T08:43:08.489Z,101898.75
2022-07-29T08:45:48.192Z,101900.63
2022-07-29T08:48:17.790Z,101892.78
2022-07-29T08:50:46.744Z,101902.06
2022-07-29T08:53:18.015Z,101902.88
2022-07-29T08:55:46.366Z,101898.81
2022-07-29T08:58:15.687Z,101897.56
2022-07-29T09:00:44.383Z,101906.19
2022-07-29T09:03:15.888Z,101900.72
2022-07-29T09:05:47.759Z,101903.19
2022-07-29T09:08:17.257Z,101912.03
2022-07-29T09:10:44.683Z,101914.00
2022-07-29T09:13:11.571Z,101913.53
2022-07-29T09:15:38.319Z,101910.44
2022-07-29T09:18:05.103Z,101917.41
2022-07-29T09:20:51.797Z,101902.66
2022-07-29T09:23:24.613Z,101895.16
2022-07-29T09:25:51.827Z,101892.94
2022-07-29T09:28:19.097Z,101899.94
2022-07-29T09:30:52.327Z,101891.91
2022-07-29T09:33:19.923Z,101907.91
2022-07-29T09:35:56.589Z,101911.31
2022-07-29T09:38:25.547Z,101908.00
2022-07-29T09:41:05.615Z,101905.94
2022-07-29T09:43:33.496Z,101903.72
2022-07-29T09:46:12.273Z,101900.06
2022-07-29T09:48:39.416Z,101866.09
2022-07-29T09:51:07.512Z,101901.59
2022-07-29T09:53:38.159Z,101902.00
2022-07-29T09:56:06.063Z,101899.38
2022-07-29T09:58:34.770Z,101903.56
2022-07-29T10:01:02.762Z,101913.78
2022-07-29T10:03:29.997Z,101904.00
2022-07-29T10:06:08.275Z,101901.16
2022-07-29T10:08:37.203Z,101901.94
2022-07-29T10:11:13.858Z,101898.38
2022-07-29T10:13:41.919Z,101905.53
2022-07-29T10:16:09.377Z,101906.03
2022-07-29T10:18:38.679Z,101904.16
2022-07-29T10:21:05.699Z,101902.91
2022-07-29T10:23:46.310Z,101897.19
2022-07-29T10:26:16.649Z,101892.38
2022-07-29T10:28:43.428Z,101895.34
2022-07-29T10:31:16.648Z,101895.53
2022-07-29T10:33:54.032Z,101893.56
2022-07-29T10:36:33.697Z,101893.81
2022-07-29T10:39:15.546Z,101876.63
2022-07-29T10:42:03.600Z,101878.69
2022-07-29T10:44:31.378Z,101879.72
2022-07-29T10:46:58.934Z,101881.78
2022-07-29T10:49:30.347Z,101884.25
2022-07-29T10:52:00.919Z,101875.13
2022-07-29T10:54:54.868Z,101881.41
2022-07-29T10:57:53.207Z,101883.63
2022-07-29T11:00:29.948Z,101881.88
2022-07-29T11:02:59.535Z,101885.13
2022-07-29T11:05:39.926Z,101878.72
2022-07-29T11:08:35.053Z,101879.09
2022-07-29T11:11:31.906Z,101888.06
2022-07-29T11:14:00.705Z,101882.97
2022-07-29T11:17:06.304Z,101887.53
2022-07-29T11:19:34.474Z,101883.28
2022-07-29T11:22:03.059Z,101884.50
2022-07-29T11:24:34.784Z,101885.19
2022-07-29T11:27:18.389Z,101882.63
2022-07-29T11:29:57.283Z,101883.38
2022-07-29T11:32:29.241Z,101883.31
2022-07-29T11:35:17.601Z,101894.97
2022-07-29T11:37:52.261Z,101886.22
2022-07-29T11:40:23.064Z,101888.09
2022-07-29T11:42:52.177Z,101886.47
2022-07-29T11:45:44.272Z,101896.03
2022-07-29T11:48:29.494Z,101883.09
2022-07-29T11:51:00.267Z,101886.88
2022-07-29T11:56:16.429Z,101881.09
2022-07-29T11:58:44.181Z,101871.56
2022-07-29T12:01:18.525Z,101883.47
2022-07-29T12:03:45.458Z,101882.63
2022-07-29T12:06:14.815Z,101880.31
2022-07-29T12:08:44.000Z,101887.38
2022-07-29T12:11:17.717Z,101887.31
2022-07-29T12:13:49.315Z,101887.72
2022-07-29T12:16:29.302Z,101887.38
2022-07-29T12:19:02.456Z,101876.88
2022-07-29T12:21:30.239Z,101882.56
2022-07-29T12:24:03.471Z,101878.44
2022-07-29T12:26:34.121Z,101885.50
2022-07-29T12:29:03.288Z,101887.44
2022-07-29T12:31:43.517Z,101884.97
2022-07-29T12:34:12.831Z,101885.44
2022-07-29T12:36:39.693Z,101888.38
2022-07-29T12:39:06.656Z,101885.06
2022-07-29T12:41:33.550Z,101889.06
2022-07-29T12:44:00.456Z,101878.59
2022-07-29T12:46:27.554Z,101889.84
2022-07-29T12:48:56.277Z,101882.25
2022-07-29T12:51:30.252Z,101878.84
2022-07-29T12:54:05.951Z,101885.22
2022-07-29T12:56:42.761Z,101879.44
2022-07-29T12:59:18.845Z,101879.47
2022-07-29T13:01:48.111Z,101881.88
2022-07-29T13:04:27.868Z,101872.66
2022-07-29T13:07:00.804Z,101887.63
2022-07-29T13:09:38.213Z,101876.56
2022-07-29T13:12:08.598Z,101882.16
2022-07-29T13:14:37.869Z,101877.59
2022-07-29T13:17:06.803Z,101879.31
2022-07-29T13:19:37.716Z,101878.16
2022-07-29T13:22:05.424Z,101874.03
2022-07-29T13:24:32.257Z,101876.09
2022-07-29T13:26:59.143Z,101880.13
2022-07-29T13:29:31.349Z,101876.69
2022-07-29T13:31:58.941Z,101872.94
2022-07-29T13:34:26.118Z,101870.34
2022-07-29T13:36:54.527Z,101879.81
2022-07-29T13:39:21.307Z,101873.56
2022-07-29T13:41:48.139Z,101864.72
2022-07-29T13:44:16.104Z,101866.72
2022-07-29T13:46:42.977Z,101866.94
2022-07-29T13:49:09.795Z,101869.16
2022-07-29T13:51:36.668Z,101871.00
2022-07-29T13:54:04.840Z,101861.34
2022-07-29T13:56:31.873Z,101870.09
2022-07-29T13:58:58.660Z,101864.09
2022-07-29T14:01:26.192Z,101858.38
2022-07-29T14:03:52.993Z,101868.81
2022-07-29T14:06:20.183Z,101874.03
2022-07-29T14:08:49.320Z,101871.81
2022-07-29T14:11:17.521Z,101862.31
2022-07-29T14:13:45.802Z,101868.53
2022-07-29T14:16:12.820Z,101873.47
2022-07-29T14:18:39.729Z,101874.66
2022-07-29T14:21:06.555Z,101876.88
2022-07-29T14:23:33.404Z,101879.16
2022-07-29T14:26:00.815Z,101877.50
2022-07-29T14:28:29.733Z,101877.19
2022-07-29T14:30:56.407Z,101875.63
2022-07-29T14:33:23.175Z,101874.06
2022-07-29T14:35:50.049Z,101874.84
2022-07-29T14:38:16.820Z,101877.66
2022-07-29T14:40:43.649Z,101867.25
2022-07-29T14:43:10.404Z,101871.13
2022-07-29T14:45:38.565Z,101858.84
2022-07-29T14:48:05.859Z,101869.03
2022-07-29T14:50:33.224Z,101869.78
2022-07-29T14:53:00.109Z,101868.44
2022-07-29T14:55:27.188Z,101866.44
2022-07-29T14:58:03.089Z,101856.59
2022-07-29T15:00:34.931Z,101854.41
2022-07-29T15:03:03.923Z,101858.44
2022-07-29T15:05:31.485Z,101861.34
2022-07-29T15:07:58.414Z,101861.41
2022-07-29T15:10:27.142Z,101865.44
2022-07-29T15:12:53.943Z,101859.00
2022-07-29T15:15:20.886Z,101863.53
2022-07-29T15:17:47.903Z,101857.59
2022-07-29T15:20:16.101Z,101863.53
2022-07-29T15:22:43.941Z,101865.97
2022-07-29T15:25:11.163Z,101868.38
2022-07-29T15:27:38.084Z,101862.75
2022-07-29T15:30:05.739Z,101862.25
2022-07-29T15:32:32.611Z,101864.81
2022-07-29T15:34:59.512Z,101862.03
2022-07-29T15:37:29.670Z,101860.44
2022-07-29T15:40:16.551Z,101861.44
2022-07-29T15:42:43.329Z,101864.03
2022-07-29T15:45:10.621Z,101859.44
2022-07-29T15:47:37.580Z,101860.91
2022-07-29T15:50:05.533Z,101860.09
2022-07-29T15:52:33.894Z,101857.09
2022-07-29T15:55:00.718Z,101849.72
2022-07-29T15:57:27.463Z,101853.91
2022-07-29T15:59:54.338Z,101848.28
2022-07-29T16:02:21.135Z,101849.56
2022-07-29T16:04:47.986Z,101842.53
2022-07-29T16:07:14.740Z,101850.66
2022-07-29T16:09:43.656Z,101845.66
2022-07-29T16:12:14.970Z,101845.06
2022-07-29T16:14:42.822Z,101843.00
2022-07-29T16:17:09.660Z,101842.81
2022-07-29T16:19:41.500Z,101842.22
2022-07-29T16:22:08.331Z,101839.56
2022-07-29T16:24:35.193Z,101855.34
2022-07-29T16:27:03.498Z,101836.22
2022-07-29T16:29:30.346Z,101852.72
2022-07-29T16:31:57.257Z,101850.00
2022-07-29T16:34:24.363Z,101843.19
2022-07-29T16:36:51.171Z,101841.50
2022-07-29T16:39:17.908Z,101849.03
2022-07-29T16:41:44.680Z,101848.53
2022-07-29T16:44:12.931Z,101858.25
2022-07-29T16:46:39.672Z,101850.06
2022-07-29T16:49:08.436Z,101854.69
2022-07-29T16:51:35.386Z,101862.94
2022-07-29T16:54:02.227Z,101859.25
2022-07-29T16:56:29.061Z,101856.72
2022-07-29T16:58:57.476Z,101861.81
2022-07-29T17:01:25.677Z,101860.78
2022-07-29T17:04:07.546Z,101859.94
2022-07-29T17:06:35.199Z,101865.81
2022-07-29T17:09:02.395Z,101854.69
2022-07-29T17:11:52.426Z,101857.31
2022-07-29T17:14:16.438Z,101861.88
2022-07-29T17:17:00.627Z,101863.09
2022-07-29T17:19:31.212Z,101857.31
2022-07-29T17:22:06.352Z,101857.28
2022-07-29T17:24:36.066Z,101869.75
2022-07-29T17:27:02.988Z,101853.34
2022-07-29T17:29:32.244Z,101857.34
2022-07-29T17:32:00.283Z,101855.50
2022-07-29T17:34:27.353Z,101857.59
2022-07-29T17:36:54.141Z,101868.28
2022-07-29T17:39:21.759Z,101862.69
2022-07-29T17:41:48.662Z,101865.25
2022-07-29T17:44:15.538Z,101862.13
2022-07-29T17:46:42.502Z,101860.19
2022-07-29T17:49:11.331Z,101866.47
2022-07-29T17:51:38.499Z,101863.59
2022-07-29T17:54:05.509Z,101868.94
2022-07-29T17:56:34.267Z,101862.97
2022-07-29T17:59:06.466Z,101865.25
2022-07-29T18:01:34.058Z,101866.09
2022-07-29T18:04:02.428Z,101860.72
2022-07-29T18:06:31.016Z,101862.06
2022-07-29T18:08:57.779Z,101864.50
2022-07-29T18:11:24.659Z,101868.13
2022-07-29T18:13:52.019Z,101861.66
2022-07-29T18:16:19.676Z,101862.69
2022-07-29T18:18:46.807Z,101867.50
2022-07-29T18:21:13.666Z,101862.34
2022-07-29T18:23:42.600Z,101869.41
2022-07-29T18:26:09.821Z,101868.75
2022-07-29T18:28:36.737Z,101866.97
2022-07-29T18:31:03.699Z,101869.25
2022-07-29T18:33:32.517Z,101870.38
2022-07-29T18:36:10.065Z,101875.75
2022-07-29T18:38:38.363Z,101870.94
2022-07-29T18:41:06.551Z,101876.72
2022-07-29T18:43:33.471Z,101875.41
2022-07-29T18:46:00.570Z,101877.66
2022-07-29T18:48:27.373Z,101868.25
2022-07-29T18:50:54.480Z,101866.06
2022-07-29T18:53:21.257Z,101874.66
2022-07-29T18:55:48.068Z,101876.03
2022-07-29T18:58:16.158Z,101883.38
2022-07-29T19:00:43.533Z,101875.41
2022-07-29T19:03:10.548Z,101886.44
2022-07-29T19:05:37.477Z,101882.16
2022-07-29T19:08:04.611Z,101886.13
2022-07-29T19:10:31.427Z,101880.41
2022-07-29T19:12:58.826Z,101877.50
2022-07-29T19:15:27.531Z,101881.44
2022-07-29T19:17:59.022Z,101881.97
2022-07-29T19:20:27.762Z,101887.78
2022-07-29T19:22:54.586Z,101902.00
2022-07-29T19:25:23.084Z,101906.66
2022-07-29T19:27:49.871Z,101906.69
2022-07-29T19:30:16.991Z,101901.94
2022-07-29T19:32:45.112Z,101908.22
2022-07-29T19:35:30.555Z,101911.03
2022-07-29T19:38:00.779Z,101913.00
2022-07-29T19:40:28.890Z,101919.34
2022-07-29T19:42:56.172Z,101920.63
2022-07-29T19:45:24.879Z,101922.09
2022-07-29T19:47:57.697Z,101927.59
2022-07-29T19:50:27.679Z,101936.44
2022-07-29T19:52:54.573Z,101930.84
2022-07-29T19:55:22.004Z,101931.41
2022-07-29T19:57:49.015Z,101933.63
2022-07-29T20:00:16.442Z,101933.16
2022-07-29T20:02:43.724Z,101938.03
2022-07-29T20:05:12.346Z,101941.97
2022-07-29T20:07:40.086Z,101943.91
2022-07-29T20:10:08.956Z,101948.44
2022-07-29T20:12:38.020Z,101947.72
2022-07-29T20:15:07.244Z,101946.00
2022-07-29T20:17:39.763Z,101946.34
2022-07-29T20:20:09.150Z,101946.34
2022-07-29T20:22:37.822Z,101948.31
2022-07-29T20:25:05.894Z,101943.44
2022-07-29T20:27:32.748Z,101949.06
2022-07-29T20:29:59.498Z,101941.34
2022-07-29T20:32:26.602Z,101946.13
2022-07-29T20:34:53.715Z,101943.81
2022-07-29T20:37:20.709Z,101950.47
2022-07-29T20:39:48.920Z,101950.63
2022-07-29T20:42:15.760Z,101951.72
2022-07-29T20:44:43.133Z,101943.91
2022-07-29T20:47:10.003Z,101944.88
2022-07-29T20:49:37.104Z,101938.78
2022-07-29T20:52:04.205Z,101946.06
2022-07-29T20:54:31.129Z,101951.69
2022-07-29T20:56:59.618Z,101946.19
2022-07-29T20:59:26.605Z,101946.78
2022-07-29T21:01:55.669Z,101955.31
2022-07-29T21:04:22.564Z,101957.59
2022-07-29T21:06:57.775Z,101950.78
2022-07-29T21:09:24.823Z,101959.03
2022-07-29T21:11:51.621Z,101965.50
2022-07-29T21:14:40.190Z,101960.63
2022-07-29T21:17:10.374Z,101957.44
2022-07-29T21:19:37.214Z,101953.03
2022-07-29T21:22:04.024Z,101958.06
2022-07-29T21:24:30.843Z,101958.88
2022-07-29T21:27:21.134Z,101952.91
2022-07-29T21:29:49.979Z,101954.63
2022-07-29T21:32:29.614Z,101958.41
2022-07-29T21:34:57.303Z,101943.50
2022-07-29T21:37:24.367Z,101946.94
2022-07-29T21:39:51.489Z,101948.63
2022-07-29T21:42:18.285Z,101944.13
2022-07-29T21:44:45.394Z,101949.25
2022-07-29T21:47:13.596Z,101946.81
2022-07-29T21:49:40.425Z,101941.91
2022-07-29T21:52:07.917Z,101937.50
2022-07-29T21:54:35.836Z,101941.91
2022-07-29T21:57:03.197Z,101937.63
2022-07-29T21:59:30.467Z,101932.38
2022-07-29T22:02:01.112Z,101932.59
2022-07-29T22:04:29.806Z,101933.94
2022-07-29T22:06:58.182Z,101939.75
2022-07-29T22:09:25.723Z,101934.00
2022-07-29T22:11:52.641Z,101928.00
2022-07-29T22:14:19.550Z,101923.69
2022-07-29T22:16:47.770Z,101934.44
2022-07-29T22:19:15.403Z,101919.09
2022-07-29T22:21:43.684Z,101921.19
2022-07-29T22:24:11.294Z,101919.47
2022-07-29T22:26:38.494Z,101922.50
2022-07-29T22:29:05.525Z,101919.22
2022-07-29T22:31:32.546Z,101923.31
2022-07-29T22:33:59.418Z,101925.34
2022-07-29T22:36:26.869Z,101933.81
2022-07-29T22:38:55.043Z,101933.28
2022-07-29T22:41:21.810Z,101927.16
2022-07-29T22:43:48.570Z,101926.22
2022-07-29T22:46:15.475Z,101928.66
2022-07-29T22:48:42.459Z,101933.34
2022-07-29T22:51:09.305Z,101936.69
2022-07-29T22:53:37.020Z,101942.16
2022-07-29T22:56:05.906Z,101936.91
2022-07-29T22:58:32.674Z,101940.53
2022-07-29T23:00:59.567Z,101954.28
2022-07-29T23:03:26.610Z,101953.41
2022-07-29T23:05:53.393Z,101948.16
2022-07-29T23:08:20.691Z,101948.59
2022-07-29T23:10:47.616Z,101952.25
2022-07-29T23:13:15.840Z,101954.94
2022-07-29T23:15:43.179Z,101954.94
2022-07-29T23:18:10.003Z,101940.78
2022-07-29T23:20:36.888Z,101954.19
2022-07-29T23:23:04.098Z,101942.09
2022-07-29T23:25:31.272Z,101953.94
2022-07-29T23:27:58.144Z,101950.31
2022-07-29T23:30:26.810Z,101950.97
2022-07-29T23:32:54.929Z,101951.59
2022-07-29T23:35:25.661Z,101954.16
2022-07-29T23:37:52.727Z,101953.06
2022-07-29T23:40:19.785Z,101955.16
2022-07-29T23:42:46.541Z,101951.28
2022-07-29T23:45:13.988Z,101945.63
2022-07-29T23:47:42.405Z,101942.59
2022-07-29T23:50:14.079Z,101951.00
2022-07-29T23:52:41.352Z,101953.97
2022-07-29T23:55:36.854Z,101951.00
2022-07-29T23:57:55.737Z,101944.88
